Time;durP1;ratioP1;P1;durP2;ratioP2;P2;SDS_P1;SDS_P2;PMS_P1;PMS_P2;Temp;Humidity;BMP_temperature;BMP_pressure;BME280_temperature;BME280_humidity;BME280_pressure;Samples;Min_cycle;Max_cycle;Signal;HPM_P1;HPM_P2
2021/01/20 00:24:18;;;;;;;;;;;;;;;6.32;46.71;99539.97;6032813;23;19929;-79
2021/01/20 00:27:56;;;;;;;;;;;;;;;6.13;48.17;99537.03;6041216;23;19926;-79
2021/01/20 00:31:23;;;;;;;;;;;;;;;;;;;;;
2021/01/20 00:34:17;;;;;;;;;;;;;;;5.96;49.68;99524.34;5996896;23;20056;-79
2021/01/20 00:44:12;;;;;;;;;;;;;;;5.87;52.05;99518.47;6123101;23;19931;-79
2021/01/20 00:47:31;;;;;;;;;;;;;;;5.83;51.98;99520.34;6000493;23;20342;-79
2021/01/20 00:55:03;;;;;;;;;;;;;;;5.78;53.21;99507.34;6089885;23;20095;-79
2021/01/20 01:01:17;;;;;;;;;;;;;;;5.76;53.65;99500.41;6114087;23;19945;-78
2021/01/20 01:03:44;;;;;;;;;;;;;;;5.76;54.26;99503.03;6146666;23;20002;-79
2021/01/20 01:06:11;;;;;;;;;;;;;;;5.75;54.19;99506.53;6125511;23;19920;-78
2021/01/20 01:08:38;;;;;;;;;;;;;;;5.74;54.54;99497.81;6152280;23;20551;-78
2021/01/20 01:11:05;;;;;;;;;;;;;;;5.72;54.29;99512.75;6127907;23;20217;-78
2021/01/20 01:13:48;;;;;;;;;;;;;;;5.72;54.44;99504.03;6146503;23;20020;-79
2021/01/20 01:16:35;;;;;;;;;;;;;;;5.71;55.03;99505.75;6142767;23;20031;-78
2021/01/20 01:19:03;;;;;;;;;;;;;;;5.69;55.14;99502.34;6237285;23;20347;-78
2021/01/20 01:21:29;;;;;;;;;;;;;;;5.69;54.86;99499.72;6239207;23;19919;-79
2021/01/20 01:23:56;;;;;;;;;;;;;;;5.70;55.28;99509.31;6239963;22;19951;-79
2021/01/20 01:26:23;;;;;;;;;;;;;;;5.68;55.72;99503.22;6239402;23;19973;-78
2021/01/20 01:28:51;;;;;;;;;;;;;;;5.68;55.31;99503.22;6230998;23;19947;-78
2021/01/20 01:31:44;;;;;;;;;;;;;;;5.66;55.85;99491.94;6227970;23;19923;-78
2021/01/20 01:34:11;;;;;;;;;;;;;;;5.65;55.65;99493.69;6236017;23;19935;-79
2021/01/20 01:36:38;;;;;;;;;;;;;;;5.66;55.80;99489.31;6237656;23;19924;-79
2021/01/20 01:39:21;;;;;;;;;;;;;;;5.65;55.92;99483.19;6238237;23;19926;-78
2021/01/20 01:41:50;;;;;;;;;;;;;;;5.63;56.26;99482.38;6237683;23;19926;-79
2021/01/20 01:44:19;;;;;;;;;;;;;;;5.63;56.25;99478.88;6230418;23;19924;-79
2021/01/20 01:46:55;;;;;;;;;;;;;;;5.63;56.53;99473.63;6233957;23;19930;-78
2021/01/20 01:49:32;;;;;;;;;;;;;;;5.63;56.86;99474.50;6237171;23;19931;-79
2021/01/20 01:52:02;;;;;;;;;;;;;;;5.62;56.77;99470.16;6237761;23;19989;-79
2021/01/20 01:54:38;;;;;;;;;;;;;;;5.61;56.89;99471.06;6238802;23;19924;-79
2021/01/20 01:57:36;;;;;;;;;;;;;;;5.62;56.88;99466.66;6234587;22;20320;-79
2021/01/20 02:00:05;;;;;;;;;;;;;;;5.61;56.71;99459.72;6231875;23;19919;-79
2021/01/20 02:02:41;;;;;;;;;;;;;;;5.66;56.52;99460.44;6238750;22;19923;-78
2021/01/20 02:05:15;;;;;;;;;;;;;;;5.87;54.86;99456.34;6237211;23;19975;-79
2021/01/20 02:07:46;;;;;;;;;;;;;;;6.04;52.80;99448.03;6237407;23;19923;-80
2021/01/20 02:10:18;;;;;;;;;;;;;;;6.11;51.78;99446.91;6235949;23;19920;-79
2021/01/20 02:12:53;;;;;;;;;;;;;;;6.20;50.21;99440.53;6231455;23;20289;-80
2021/01/20 02:15:23;;;;;;;;;;;;;;;6.23;49.54;99437.81;6232457;23;20090;-80
2021/01/20 02:17:53;;;;;;;;;;;;;;;6.10;50.85;99445.19;6236249;23;19926;-79
2021/01/20 02:20:48;;;;;;;;;;;;;;;6.01;52.07;99444.63;6236440;23;20262;-79
2021/01/20 02:23:17;;;;;;;;;;;;;;;6.00;52.73;99448.16;6237093;23;20339;-79
2021/01/20 02:26:19;;;;;;;;;;;;;;;6.09;52.29;99450.50;6233210;23;20252;-79
2021/01/20 02:29:27;;;;;;;;;;;;;;;6.23;50.69;99437.81;6211240;22;20019;-79
2021/01/20 02:32:16;;;;;;;;;;;;;;;6.32;49.07;99427.03;6237819;23;19928;-79
2021/01/20 02:34:44;;;;;;;;;;;;;;;6.40;48.16;99429.41;6238364;22;19947;-79
2021/01/20 02:37:11;;;;;;;;;;;;;;;6.41;47.71;99433.78;6235643;23;20350;-79
2021/01/20 02:39:57;;;;;;;;;;;;;;;6.45;47.27;99426.66;6234184;23;20266;-79
2021/01/20 02:42:42;;;;;;;;;;;;;;;6.48;46.69;99419.50;6230636;23;20330;-79
2021/01/20 02:45:09;;;;;;;;;;;;;;;6.51;46.06;99420.34;6236489;23;19990;-79
2021/01/20 02:47:44;;;;;;;;;;;;;;;6.55;46.09;99404.41;6236934;23;19977;-79
2021/01/20 02:50:15;;;;;;;;;;;;;;;6.57;45.41;99409.66;6237215;23;19919;-78
2021/01/20 02:52:47;;;;;;;;;;;;;;;6.59;45.48;99405.19;6236464;23;19923;-78
2021/01/20 02:55:33;;;;;;;;;;;;;;;6.57;45.22;99407.88;6233163;23;20364;-79
2021/01/20 02:58:22;;;;;;;;;;;;;;;6.63;45.55;99415.56;6233299;23;19970;-79
2021/01/20 03:01:13;;;;;;;;;;;;;;;6.64;44.81;99419.03;6209840;22;19928;-78
2021/01/20 03:03:43;;;;;;;;;;;;;;;6.48;45.45;99410.78;6240008;23;20275;-79
2021/01/20 03:06:10;;;;;;;;;;;;;;;6.31;46.54;99411.31;6238903;23;19919;-79
2021/01/20 03:08:37;;;;;;;;;;;;;;;6.21;47.32;99409.88;6235839;22;19923;-78
2021/01/20 03:11:06;;;;;;;;;;;;;;;6.13;48.39;99403.09;6231134;23;19924;-79
2021/01/20 03:13:34;;;;;;;;;;;;;;;6.07;49.01;99399.81;6238424;23;19924;-78
2021/01/20 03:16:02;;;;;;;;;;;;;;;6.04;49.29;99402.50;6237697;23;19931;-78
2021/01/20 03:18:29;;;;;;;;;;;;;;;6.00;49.53;99403.53;6238491;23;19923;-77
2021/01/20 03:20:56;;;;;;;;;;;;;;;5.97;50.81;99396.56;6237721;23;20261;-78
2021/01/20 03:23:23;;;;;;;;;;;;;;;5.95;51.16;99391.38;6233486;23;19958;-79
2021/01/20 03:25:50;;;;;;;;;;;;;;;5.92;50.86;99399.34;6233297;22;19920;-78
2021/01/20 03:28:17;;;;;;;;;;;;;;;5.92;52.03;99390.59;6238301;23;19926;-78
2021/01/20 03:30:44;;;;;;;;;;;;;;;5.90;52.47;99397.66;6239124;22;20350;-79
2021/01/20 03:33:10;;;;;;;;;;;;;;;5.89;51.69;99385.44;6237397;23;19970;-78
2021/01/20 03:35:37;;;;;;;;;;;;;;;5.88;52.70;99384.56;6238035;23;19923;-78
2021/01/20 03:38:05;;;;;;;;;;;;;;;5.87;53.07;99377.63;6232616;23;19920;-78
2021/01/20 03:40:32;;;;;;;;;;;;;;;5.86;52.95;99382.88;6232724;23;19942;-79
2021/01/20 03:42:58;;;;;;;;;;;;;;;5.85;53.59;99378.56;6237769;23;20350;-79
2021/01/20 03:45:25;;;;;;;;;;;;;;;5.83;53.34;99378.63;6238024;23;19923;-79
2021/01/20 03:47:52;;;;;;;;;;;;;;;5.82;54.10;99374.28;6237658;22;19919;-79
2021/01/20 03:50:19;;;;;;;;;;;;;;;5.81;54.17;99381.25;6238415;22;19931;-79
2021/01/20 03:52:45;;;;;;;;;;;;;;;5.80;54.63;99361.19;6232888;23;19963;-79
2021/01/20 03:55:13;;;;;;;;;;;;;;;5.79;54.08;99372.59;6232679;23;20007;-79
2021/01/20 03:57:40;;;;;;;;;;;;;;;5.79;54.79;99364.72;6237992;22;19930;-78
2021/01/20 04:00:07;;;;;;;;;;;;;;;5.79;54.50;99361.22;6238399;23;19926;-78
2021/01/20 04:02:34;;;;;;;;;;;;;;;5.79;55.48;99361.22;6237477;22;19923;-79
2021/01/20 04:05:20;;;;;;;;;;;;;;;5.77;55.43;99371.75;6235937;23;20436;-78
2021/01/20 04:07:47;;;;;;;;;;;;;;;5.78;55.33;99362.16;6231130;22;19985;-78
2021/01/20 04:10:14;;;;;;;;;;;;;;;5.76;55.70;99363.94;6233218;23;19924;-78
2021/01/20 04:12:41;;;;;;;;;;;;;;;5.76;55.85;99363.94;6238444;23;19919;-78
2021/01/20 04:15:09;;;;;;;;;;;;;;;5.75;55.77;99359.59;6237725;22;20400;-78
2021/01/20 04:17:36;;;;;;;;;;;;;;;5.76;56.06;99361.31;6237533;22;19943;-78
2021/01/20 04:20:05;;;;;;;;;;;;;;;5.75;56.00;99356.97;6236125;23;20380;-78
2021/01/20 04:22:32;;;;;;;;;;;;;;;5.74;55.90;99361.38;6231201;23;19950;-78
2021/01/20 04:24:58;;;;;;;;;;;;;;;5.74;55.96;99356.13;6235779;23;19930;-79
2021/01/20 04:27:26;;;;;;;;;;;;;;;5.74;56.16;99347.38;6238413;23;20334;-79
2021/01/20 04:29:53;;;;;;;;;;;;;;;5.73;56.70;99345.69;6237252;23;19926;-79
2021/01/20 04:32:20;;;;;;;;;;;;;;;5.73;56.24;99346.53;6237321;22;19920;-79
2021/01/20 04:34:47;;;;;;;;;;;;;;;5.73;56.99;99345.69;6233405;22;20275;-78
2021/01/20 04:37:14;;;;;;;;;;;;;;;5.73;56.97;99340.44;6230284;23;19920;-79
2021/01/20 04:39:42;;;;;;;;;;;;;;;5.72;57.05;99339.53;6236777;23;19924;-79
2021/01/20 04:42:09;;;;;;;;;;;;;;;5.73;56.87;99330.78;6238148;23;19931;-79
2021/01/20 04:44:36;;;;;;;;;;;;;;;5.72;57.17;99336.94;6237743;23;20460;-79
2021/01/20 04:47:05;;;;;;;;;;;;;;;5.90;55.64;99332.03;6237516;23;19930;-78
2021/01/20 04:49:33;;;;;;;;;;;;;;;6.08;53.66;99335.88;6232396;23;19969;-79
2021/01/20 04:52:01;;;;;;;;;;;;;;;6.19;52.14;99332.94;6233930;23;19919;-78
2021/01/20 04:54:30;;;;;;;;;;;;;;;6.27;50.86;99325.66;6239267;22;19924;-79
2021/01/20 04:56:56;;;;;;;;;;;;;;;6.35;49.84;99318.38;6238135;23;19947;-79
2021/01/20 04:59:27;;;;;;;;;;;;;;;6.40;49.42;99323.50;6239770;23;20620;-79
2021/01/20 05:01:55;;;;;;;;;;;;;;;6.27;50.49;99320.41;6238844;23;19986;-79
2021/01/20 05:04:23;;;;;;;;;;;;;;;6.18;51.77;99315.44;6234921;23;19925;-79
2021/01/20 05:06:50;;;;;;;;;;;;;;;6.15;52.54;99317.25;6233218;22;19930;-78
2021/01/20 05:09:16;;;;;;;;;;;;;;;6.24;52.00;99317.88;6239247;23;19986;-78
2021/01/20 05:11:44;;;;;;;;;;;;;;;6.38;50.67;99314.78;6238839;23;19924;-79
2021/01/20 05:14:12;;;;;;;;;;;;;;;6.48;49.61;99311.81;6239452;23;20028;-79
2021/01/20 05:16:39;;;;;;;;;;;;;;;6.53;48.81;99314.28;6239326;23;20413;-79
2021/01/20 05:19:07;;;;;;;;;;;;;;;6.57;47.72;99304.53;6234280;23;20372;-78
2021/01/20 05:21:34;;;;;;;;;;;;;;;6.63;46.98;99313.06;6232009;23;19946;-79
2021/01/20 05:24:25;;;;;;;;;;;;;;;6.69;46.92;99309.38;6239230;22;19930;-80
2021/01/20 05:26:52;;;;;;;;;;;;;;;6.73;46.18;99305.72;6209982;23;19943;-79
2021/01/20 05:29:18;;;;;;;;;;;;;;;6.79;46.17;99304.66;6238461;23;19924;-79
2021/01/20 05:31:45;;;;;;;;;;;;;;;6.82;45.64;99307.19;6237967;23;20364;-79
2021/01/20 05:34:38;;;;;;;;;;;;;;;6.85;45.36;99300.94;6233985;23;19923;-78
2021/01/20 05:37:07;;;;;;;;;;;;;;;6.64;46.45;99304.28;6211036;23;19927;-78
2021/01/20 05:39:34;;;;;;;;;;;;;;;6.51;47.68;99308.22;6237738;23;19951;-79
2021/01/20 05:42:04;;;;;;;;;;;;;;;6.42;48.26;99306.78;6239059;23;20090;-79
2021/01/20 05:44:30;;;;;;;;;;;;;;;6.38;49.33;99306.91;6239489;23;19928;-78
2021/01/20 05:46:58;;;;;;;;;;;;;;;6.31;49.89;99299.22;6234031;23;19943;-79
2021/01/20 05:49:26;;;;;;;;;;;;;;;6.30;50.70;99299.28;6233951;23;19996;-78
2021/01/20 05:51:53;;;;;;;;;;;;;;;6.27;50.92;99294.97;6238948;23;19934;-79
2021/01/20 05:54:31;;;;;;;;;;;;;;;6.26;51.62;99306.41;6239690;23;19931;-79
2021/01/20 05:57:14;;;;;;;;;;;;;;;6.24;51.95;99295.09;6240830;22;20037;-78
2021/01/20 05:59:41;;;;;;;;;;;;;;;6.24;52.40;99302.13;6240419;23;20281;-79
2021/01/20 06:02:08;;;;;;;;;;;;;;;6.23;52.87;99303.03;6233778;23;19985;-79
2021/01/20 06:04:35;;;;;;;;;;;;;;;6.23;53.50;99298.63;6234124;23;19920;-79
2021/01/20 06:07:06;;;;;;;;;;;;;;;6.22;53.54;99294.28;6238817;23;19924;-78
2021/01/20 06:09:34;;;;;;;;;;;;;;;6.22;54.16;99299.53;6236603;23;19924;-78
2021/01/20 06:12:06;;;;;;;;;;;;;;;6.21;54.33;99303.09;6238623;22;19927;-77
2021/01/20 06:14:33;;;;;;;;;;;;;;;6.21;53.97;99297.84;6238119;23;19924;-76
2021/01/20 06:17:04;;;;;;;;;;;;;;;6.22;54.86;99301.31;6231792;23;19985;-77
2021/01/20 06:19:35;;;;;;;;;;;;;;;6.21;54.94;99291.72;6236501;23;20262;-76
2021/01/20 06:22:04;;;;;;;;;;;;;;;6.21;55.95;99296.97;6239052;23;19982;-79
2021/01/20 06:24:37;;;;;;;;;;;;;;;6.21;56.03;99289.06;6239532;22;19954;-76
2021/01/20 06:27:11;;;;;;;;;;;;;;;6.21;56.43;99295.22;6238723;23;20007;-78
2021/01/20 06:29:39;;;;;;;;;;;;;;;6.21;56.28;99299.59;6223578;23;20166;-79
2021/01/20 06:32:07;;;;;;;;;;;;;;;6.22;56.55;99309.19;6228737;22;19930;-82
2021/01/20 06:34:34;;;;;;;;;;;;;;;6.21;58.02;99299.59;6234076;23;20015;-78
2021/01/20 06:37:01;;;;;;;;;;;;;;;6.20;57.87;99296.13;6234626;23;19924;-79
2021/01/20 06:39:32;;;;;;;;;;;;;;;6.21;58.17;99289.06;6234438;23;19920;-80
2021/01/20 06:42:00;;;;;;;;;;;;;;;6.21;58.29;99289.97;6237066;22;19950;-78
2021/01/20 06:44:27;;;;;;;;;;;;;;;6.46;59.55;99295.25;6230558;23;19923;-80
2021/01/20 06:47:01;;;;;;;;;;;;;;;6.64;57.24;99293.78;6231490;23;19923;-79
2021/01/20 06:49:30;;;;;;;;;;;;;;;6.72;55.93;99285.59;6237299;23;20014;-79
2021/01/20 06:52:07;;;;;;;;;;;;;;;6.81;55.57;99294.94;6237146;23;19919;-78
2021/01/20 06:54:36;;;;;;;;;;;;;;;6.84;54.49;99284.31;6237334;22;19920;-78
2021/01/20 06:57:25;;;;;;;;;;;;;;;6.91;53.65;99285.81;6238011;23;20322;-76
2021/01/20 07:00:07;;;;;;;;;;;;;;;6.94;53.93;99290.09;6232036;22;20372;-77
2021/01/20 07:02:37;;;;;;;;;;;;;;;6.97;53.18;99296.13;6216452;23;19923;-77
2021/01/20 07:05:05;;;;;;;;;;;;;;;7.00;53.23;99289.91;6235089;22;19942;-77
2021/01/20 07:07:50;;;;;;;;;;;;;;;7.03;53.15;99291.56;6236014;23;19924;-77
2021/01/20 07:10:18;;;;;;;;;;;;;;;6.87;54.36;99289.47;6216057;23;19938;-77
2021/01/20 07:13:03;;;;;;;;;;;;;;;6.75;56.34;99300.41;6233984;23;19927;-77
2021/01/20 07:15:32;;;;;;;;;;;;;;;6.69;57.44;99296.22;6230973;23;19924;-77
2021/01/20 07:18:00;;;;;;;;;;;;;;;6.75;57.14;99293.38;6234915;23;19927;-77
2021/01/20 07:20:27;;;;;;;;;;;;;;;6.89;56.12;99290.25;6236789;23;19947;-77
2021/01/20 07:22:54;;;;;;;;;;;;;;;7.00;54.81;99291.66;6236167;22;20331;-77
2021/01/20 07:25:22;;;;;;;;;;;;;;;7.05;53.76;99297.59;6235107;22;20011;-76
2021/01/20 07:27:48;;;;;;;;;;;;;;;7.08;53.58;99282.59;6232709;23;19927;-76
2021/01/20 07:30:16;;;;;;;;;;;;;;;7.12;53.49;99291.22;6230746;22;19920;-76
2021/01/20 07:32:42;;;;;;;;;;;;;;;7.14;53.33;99300.78;6236352;23;19935;-76
2021/01/20 07:35:17;;;;;;;;;;;;;;;7.18;52.81;99290.97;6236634;23;19927;-77
2021/01/20 07:37:44;;;;;;;;;;;;;;;7.20;52.50;99299.69;6236711;22;19920;-76
2021/01/20 07:40:11;;;;;;;;;;;;;;;7.22;53.16;99291.72;6236946;22;19920;-76
2021/01/20 07:42:40;;;;;;;;;;;;;;;7.24;53.36;99298.66;6230838;23;19930;-76
2021/01/20 07:45:07;;;;;;;;;;;;;;;7.24;53.03;99284.66;6228654;23;19927;-76
2021/01/20 07:47:44;;;;;;;;;;;;;;;7.27;53.32;99293.25;6234932;22;19934;-76
2021/01/20 07:50:12;;;;;;;;;;;;;;;7.30;52.56;99289.66;6237725;22;19927;-76
2021/01/20 07:52:39;;;;;;;;;;;;;;;7.32;52.28;99288.69;6237051;23;19975;-76
2021/01/20 07:55:15;;;;;;;;;;;;;;;7.32;52.48;99293.13;6236300;22;19939;-75
2021/01/20 07:57:42;;;;;;;;;;;;;;;7.38;51.68;99297.28;6231810;23;20597;-76
2021/01/20 08:00:11;;;;;;;;;;;;;;;7.41;51.79;99298.03;6236079;23;19923;-75
2021/01/20 08:02:46;;;;;;;;;;;;;;;7.45;51.37;99306.66;6237788;23;20345;-76
2021/01/20 08:05:15;;;;;;;;;;;;;;;7.52;50.60;99292.34;6238107;23;19927;-76
2021/01/20 08:07:44;;;;;;;;;;;;;;;7.52;50.07;99297.63;6236125;23;19919;-76
2021/01/20 08:10:18;;;;;;;;;;;;;;;7.34;51.82;99298.31;6233753;23;19927;-76
2021/01/20 08:12:45;;;;;;;;;;;;;;;7.13;53.79;99298.19;6231982;23;19927;-76
2021/01/20 08:15:14;;;;;;;;;;;;;;;7.03;55.00;99295.03;6236670;23;19974;-76
2021/01/20 08:17:41;;;;;;;;;;;;;;;7.06;55.14;99294.91;6236293;23;19920;-76
2021/01/20 08:20:10;;;;;;;;;;;;;;;7.23;53.25;99301.34;6237859;23;19924;-76
2021/01/20 08:22:39;;;;;;;;;;;;;;;7.29;52.87;99291.44;6230603;22;19920;-77
2021/01/20 08:25:10;;;;;;;;;;;;;;;7.38;51.41;99298.16;6231586;23;20038;-76
2021/01/20 08:27:37;;;;;;;;;;;;;;;7.43;50.56;99292.69;6234502;23;19919;-76
2021/01/20 08:30:05;;;;;;;;;;;;;;;7.48;50.20;99290.75;6238961;23;19931;-76
2021/01/20 08:32:32;;;;;;;;;;;;;;;7.49;49.39;99287.22;6236178;23;19938;-76
2021/01/20 08:34:59;;;;;;;;;;;;;;;7.52;49.47;99286.25;6238438;23;19919;-76
2021/01/20 08:37:34;;;;;;;;;;;;;;;7.55;48.67;99281.72;6239590;23;19935;-76
2021/01/20 08:40:01;;;;;;;;;;;;;;;7.56;49.07;99285.22;6234434;23;19950;-76
2021/01/20 08:42:38;;;;;;;;;;;;;;;7.59;47.96;99288.59;6234620;23;20347;-76
2021/01/20 08:45:06;;;;;;;;;;;;;;;7.61;48.28;99283.25;6238493;22;20018;-76
2021/01/20 08:47:34;;;;;;;;;;;;;;;7.61;48.33;99285.88;6238815;23;19977;-78
2021/01/20 08:50:01;;;;;;;;;;;;;;;7.63;48.99;99284.06;6239222;23;19923;-76
2021/01/20 08:52:40;;;;;;;;;;;;;;;7.50;49.33;99275.78;6236620;23;19955;-76
2021/01/20 08:55:08;;;;;;;;;;;;;;;7.35;51.51;99295.63;6232321;22;19995;-76
2021/01/20 08:57:36;;;;;;;;;;;;;;;7.24;51.89;99280.25;6236993;23;19923;-76
2021/01/20 09:00:04;;;;;;;;;;;;;;;7.16;52.98;99290.19;6239370;23;19919;-76
2021/01/20 09:02:31;;;;;;;;;;;;;;;7.12;53.64;99293.84;6237212;23;19975;-78
2021/01/20 09:05:14;;;;;;;;;;;;;;;7.07;54.22;99288.75;6238867;22;19995;-76
2021/01/20 09:07:41;;;;;;;;;;;;;;;7.05;54.57;99298.47;6232638;23;19950;-76
2021/01/20 09:10:08;;;;;;;;;;;;;;;7.03;55.05;99296.81;6233480;22;19946;-76
2021/01/20 09:12:36;;;;;;;;;;;;;;;7.00;55.28;99295.16;6240066;23;19928;-77
2021/01/20 09:15:03;;;;;;;;;;;;;;;6.98;55.55;99287.28;6238868;22;19955;-76
2021/01/20 09:17:30;;;;;;;;;;;;;;;6.98;56.47;99297.81;6236728;23;19923;-76
2021/01/20 09:19:57;;;;;;;;;;;;;;;6.97;56.95;99290.88;6238525;23;20002;-76
2021/01/20 09:22:24;;;;;;;;;;;;;;;6.97;56.94;99296.13;6233279;23;19998;-76
2021/01/20 09:24:51;;;;;;;;;;;;;;;6.94;57.32;99290.94;6232808;23;19998;-75
2021/01/20 09:27:21;;;;;;;;;;;;;;;6.94;57.75;99290.09;6238956;23;20755;-76
2021/01/20 09:29:48;;;;;;;;;;;;;;;6.93;57.78;99289.25;6239087;22;19923;-76
2021/01/20 09:32:15;;;;;;;;;;;;;;;6.94;58.24;99290.09;6235946;23;19966;-76
2021/01/20 09:34:42;;;;;;;;;;;;;;;6.92;58.14;99292.78;6238374;23;20053;-76
2021/01/20 09:37:09;;;;;;;;;;;;;;;6.92;58.96;99297.19;6233279;22;19938;-76
2021/01/20 09:39:35;;;;;;;;;;;;;;;6.92;58.90;99286.66;6232521;22;19927;-76
2021/01/20 09:42:03;;;;;;;;;;;;;;;6.91;59.38;99285.81;6236952;23;19926;-75
2021/01/20 09:44:30;;;;;;;;;;;;;;;7.06;58.42;99287.03;6240040;22;19928;-76
2021/01/20 09:46:58;;;;;;;;;;;;;;;7.23;56.04;99270.63;6238206;22;20411;-76
2021/01/20 09:49:25;;;;;;;;;;;;;;;7.36;54.99;99278.06;6238885;23;20392;-76
2021/01/20 09:51:52;;;;;;;;;;;;;;;7.42;53.41;99272.56;6229452;23;19924;-79
2021/01/20 09:54:25;;;;;;;;;;;;;;;7.50;53.00;99272.28;6233406;22;19919;-76
2021/01/20 09:56:52;;;;;;;;;;;;;;;7.52;52.20;99271.31;6238509;23;19920;-77
2021/01/20 09:59:19;;;;;;;;;;;;;;;7.59;52.04;99270.16;6238558;22;19924;-76
2021/01/20 10:01:46;;;;;;;;;;;;;;;7.48;52.32;99264.44;6237680;23;20007;-76
2021/01/20 10:04:13;;;;;;;;;;;;;;;7.35;53.45;99268.47;6237337;23;20006;-76
2021/01/20 10:06:56;;;;;;;;;;;;;;;7.28;54.83;99259.94;6231506;22;19924;-76
2021/01/20 10:09:25;;;;;;;;;;;;;;;7.29;55.44;99264.31;6235446;23;20023;-76
2021/01/20 10:11:52;;;;;;;;;;;;;;;7.45;54.11;99260.16;6236730;23;19924;-76
2021/01/20 10:14:19;;;;;;;;;;;;;;;7.56;53.16;99262.38;6238827;23;19920;-76
2021/01/20 10:16:46;;;;;;;;;;;;;;;7.62;51.99;99264.78;6235897;23;19923;-76
2021/01/20 10:19:15;;;;;;;;;;;;;;;7.70;50.91;99256.56;6230352;23;19920;-76
2021/01/20 10:21:42;;;;;;;;;;;;;;;7.74;50.92;99255.53;6230491;22;19994;-76
2021/01/20 10:24:09;;;;;;;;;;;;;;;7.79;49.39;99253.56;6238115;23;19920;-76
2021/01/20 10:26:36;;;;;;;;;;;;;;;7.83;49.05;99246.41;6237130;23;19936;-76
2021/01/20 10:29:03;;;;;;;;;;;;;;;7.87;49.37;99249.78;6222583;22;20236;-76
2021/01/20 10:31:30;;;;;;;;;;;;;;;7.87;49.68;99249.78;6238554;23;20007;-76
2021/01/20 10:33:58;;;;;;;;;;;;;;;7.89;48.93;99246.19;6234094;23;19923;-77
2021/01/20 10:36:26;;;;;;;;;;;;;;;7.93;48.94;99242.50;6234133;22;19994;-77
2021/01/20 10:38:53;;;;;;;;;;;;;;;7.95;48.48;99240.66;6237602;23;19927;-78
2021/01/20 10:41:20;;;;;;;;;;;;;;;7.96;48.56;99238.88;6237460;23;19934;-76
2021/01/20 10:43:48;;;;;;;;;;;;;;;7.97;48.91;99240.59;6236911;23;19923;-76
2021/01/20 10:46:17;;;;;;;;;;;;;;;8.02;48.73;99241.25;6236781;23;19930;-77
2021/01/20 10:48:44;;;;;;;;;;;;;;;8.03;49.05;99236.84;6231032;23;19920;-76
2021/01/20 10:51:12;;;;;;;;;;;;;;;8.09;49.10;99237.47;6229572;23;19931;-76
2021/01/20 10:53:39;;;;;;;;;;;;;;;8.11;48.87;99238.25;6236295;23;20420;-76
2021/01/20 10:56:06;;;;;;;;;;;;;;;8.16;48.23;99237.22;6238440;23;19924;-76
2021/01/20 10:58:34;;;;;;;;;;;;;;;8.18;48.92;99227.47;6237390;22;19939;-77
2021/01/20 11:01:01;;;;;;;;;;;;;;;8.13;49.80;99232.94;6226773;23;19955;-77
2021/01/20 11:03:28;;;;;;;;;;;;;;;7.94;51.46;99235.44;6232004;23;19920;-77
2021/01/20 11:05:55;;;;;;;;;;;;;;;7.80;52.45;99226.34;6232954;23;19931;-77
2021/01/20 11:08:21;;;;;;;;;;;;;;;7.72;53.63;99236.31;6238089;23;20411;-78
2021/01/20 11:10:49;;;;;;;;;;;;;;;7.63;53.54;99232.28;6238124;23;19947;-77
2021/01/20 11:13:17;;;;;;;;;;;;;;;7.59;53.88;99220.16;6239085;22;19989;-77
2021/01/20 11:15:45;;;;;;;;;;;;;;;7.58;54.07;99225.50;6238317;22;19954;-77
2021/01/20 11:18:13;;;;;;;;;;;;;;;7.56;54.63;99222.03;6230573;23;20029;-77
2021/01/20 11:20:44;;;;;;;;;;;;;;;7.55;55.48;99228.22;6209203;23;19923;-76
2021/01/20 11:23:11;;;;;;;;;;;;;;;7.55;55.89;99220.31;6236030;22;19966;-79
2021/01/20 11:25:40;;;;;;;;;;;;;;;7.54;56.61;99214.22;6236678;23;19924;-78
2021/01/20 11:28:07;;;;;;;;;;;;;;;7.52;56.34;99218.66;6238059;23;19919;-79
2021/01/20 11:30:34;;;;;;;;;;;;;;;7.51;56.56;99214.31;6235401;22;19920;-78
2021/01/20 11:33:01;;;;;;;;;;;;;;;7.51;57.06;99213.47;6229547;22;19923;-78
2021/01/20 11:35:28;;;;;;;;;;;;;;;7.51;57.44;99205.56;6232717;23;20013;-77
2021/01/20 11:37:56;;;;;;;;;;;;;;;7.51;57.47;99209.06;6237302;23;19920;-78
2021/01/20 11:40:23;;;;;;;;;;;;;;;7.50;57.60;99209.13;6236913;22;20023;-78
2021/01/20 11:42:57;;;;;;;;;;;;;;;7.47;58.22;99200.44;6238697;23;19927;-76
2021/01/20 11:45:27;;;;;;;;;;;;;;;7.45;58.79;99197.00;6233544;22;19924;-75
2021/01/20 11:47:54;;;;;;;;;;;;;;;7.44;59.39;99200.53;6230505;23;19919;-79
2021/01/20 11:50:22;;;;;;;;;;;;;;;7.43;59.25;99192.72;6237031;23;20437;-76
2021/01/20 11:52:50;;;;;;;;;;;;;;;7.38;59.37;99187.66;6236865;23;20114;-75
2021/01/20 11:55:16;;;;;;;;;;;;;;;7.41;59.50;99187.53;6236600;23;19924;-75
2021/01/20 11:57:43;;;;;;;;;;;;;;;7.43;59.72;99183.06;6236455;23;19986;-76
2021/01/20 12:00:11;;;;;;;;;;;;;;;7.45;59.57;99185.63;6231993;23;20634;-76
2021/01/20 12:02:39;;;;;;;;;;;;;;;7.54;58.78;99177.38;6229473;23;20207;-76
2021/01/20 12:05:08;;;;;;;;;;;;;;;7.70;56.92;99177.59;6236593;22;20357;-76
2021/01/20 12:07:35;;;;;;;;;;;;;;;7.78;55.36;99170.25;6236577;22;19931;-76
2021/01/20 12:10:03;;;;;;;;;;;;;;;7.87;54.58;99176.06;6237924;23;19923;-76
2021/01/20 12:12:32;;;;;;;;;;;;;;;7.93;53.81;99170.53;6238516;23;20343;-76
2021/01/20 12:15:01;;;;;;;;;;;;;;;7.98;52.76;99171.19;6232213;23;19938;-75
2021/01/20 12:17:31;;;;;;;;;;;;;;;8.02;51.80;99170.16;6235483;23;19924;-76
2021/01/20 12:19:59;;;;;;;;;;;;;;;8.07;51.30;99165.53;6238863;22;19924;-75
2021/01/20 12:22:25;;;;;;;;;;;;;;;8.09;50.93;99150.53;6237780;22;20297;-76
2021/01/20 12:24:52;;;;;;;;;;;;;;;8.11;50.82;99153.94;6236989;23;19924;-76
2021/01/20 12:27:19;;;;;;;;;;;;;;;8.12;50.88;99158.31;6223662;23;19919;-76
2021/01/20 12:29:46;;;;;;;;;;;;;;;8.17;50.56;99146.72;6232780;23;19924;-76
2021/01/20 12:32:12;;;;;;;;;;;;;;;8.17;49.43;99147.59;6234428;23;19986;-76
2021/01/20 12:34:39;;;;;;;;;;;;;;;8.18;49.48;99154.56;6236971;23;20500;-76
2021/01/20 12:37:07;;;;;;;;;;;;;;;8.21;49.31;99140.38;6237474;23;20373;-76
2021/01/20 12:39:34;;;;;;;;;;;;;;;8.22;49.38;99147.38;6236679;22;19920;-76
2021/01/20 12:42:01;;;;;;;;;;;;;;;8.25;48.66;99142.00;6230702;23;19928;-76
2021/01/20 12:44:28;;;;;;;;;;;;;;;8.26;48.79;99144.56;6230312;23;19958;-76
2021/01/20 12:46:55;;;;;;;;;;;;;;;8.25;48.97;99152.53;6236227;23;19935;-77
2021/01/20 12:49:22;;;;;;;;;;;;;;;8.28;48.80;99133.94;6236660;23;19947;-76
2021/01/20 12:51:49;;;;;;;;;;;;;;;8.30;48.35;99138.22;6236083;22;19977;-76
2021/01/20 12:54:16;;;;;;;;;;;;;;;8.16;50.04;99139.75;6236518;23;19920;-76
2021/01/20 12:56:43;;;;;;;;;;;;;;;7.97;51.22;99144.03;6230389;23;19934;-76
2021/01/20 12:59:10;;;;;;;;;;;;;;;7.86;52.72;99140.97;6236843;22;19951;-75
2021/01/20 13:01:37;;;;;;;;;;;;;;;7.79;52.60;99147.44;6229259;23;19927;-75
2021/01/20 13:04:04;;;;;;;;;;;;;;;7.73;53.77;99137.16;6236496;23;20324;-76
2021/01/20 13:06:31;;;;;;;;;;;;;;;7.66;54.20;99128.66;6235776;23;19923;-75
2021/01/20 13:08:58;;;;;;;;;;;;;;;7.61;55.28;99135.88;6234607;22;19990;-76
2021/01/20 13:11:25;;;;;;;;;;;;;;;7.57;55.69;99134.28;6232037;23;20716;-75
2021/01/20 13:13:53;;;;;;;;;;;;;;;7.55;55.90;99134.34;6238676;22;20414;-75
2021/01/20 13:16:20;;;;;;;;;;;;;;;7.54;56.22;99130.00;6238080;22;19989;-75
2021/01/20 13:18:47;;;;;;;;;;;;;;;7.52;56.60;99129.19;6237988;23;19919;-76
2021/01/20 13:21:15;;;;;;;;;;;;;;;7.51;56.99;99126.63;6237887;22;19930;-75
2021/01/20 13:23:42;;;;;;;;;;;;;;;7.50;57.16;99123.16;6232528;23;19920;-75
2021/01/20 13:26:09;;;;;;;;;;;;;;;7.48;57.50;99132.88;6232670;23;20264;-75
2021/01/20 13:28:37;;;;;;;;;;;;;;;7.47;57.43;99132.03;6238736;22;19931;-75
2021/01/20 13:31:04;;;;;;;;;;;;;;;7.46;57.88;99126.84;6237779;23;20339;-77
2021/01/20 13:33:31;;;;;;;;;;;;;;;7.45;58.35;99135.66;6236872;23;20262;-77
2021/01/20 13:35:58;;;;;;;;;;;;;;;7.43;58.57;99133.09;6237742;22;19927;-76
2021/01/20 13:38:25;;;;;;;;;;;;;;;7.43;59.04;99137.47;6232237;23;20733;-76
2021/01/20 13:40:51;;;;;;;;;;;;;;;7.40;59.42;99134.97;6231271;23;20352;-76
2021/01/20 13:43:18;;;;;;;;;;;;;;;7.38;59.56;99135.03;6238699;23;19920;-77
2021/01/20 13:45:46;;;;;;;;;;;;;;;7.38;60.06;99134.16;6237666;23;20399;-76
2021/01/20 13:48:13;;;;;;;;;;;;;;;7.68;60.89;99126.78;6238418;22;19998;-76
2021/01/20 13:50:40;;;;;;;;;;;;;;;7.72;61.51;99130.16;6239623;23;20269;-75
2021/01/20 13:53:07;;;;;;;;;;;;;;;7.65;61.81;99135.66;6233540;22;19999;-76